createdAt,value
2019-05-20T00:01:40.001Z,98829.06
2019-05-20T00:04:08.722Z,98819.69
2019-05-20T00:06:37.432Z,98813.50
2019-05-20T00:09:06.286Z,98827.38
2019-05-20T00:11:35.011Z,98836.50
2019-05-20T00:14:03.804Z,98830.50
2019-05-20T00:16:32.523Z,98829.53
2019-05-20T00:19:01.276Z,98840.38
2019-05-20T00:21:30.003Z,98834.56
2019-05-20T00:23:58.640Z,98832.22
2019-05-20T00:26:27.532Z,98835.64
2019-05-20T00:28:56.279Z,98830.96
2019-05-20T00:31:25.000Z,98826.88
2019-05-20T00:33:53.737Z,98833.07
2019-05-20T00:36:22.473Z,98843.14
2019-05-20T00:39:19.751Z,98845.07
2019-05-20T00:41:49.216Z,98850.57
2019-05-20T00:44:18.730Z,98850.31
2019-05-20T00:46:47.559Z,98839.90
2019-05-20T00:49:16.192Z,98844.10
2019-05-20T00:51:45.234Z,98838.09
2019-05-20T00:54:13.955Z,98849.66
2019-05-20T00:56:42.904Z,98851.44
2019-05-20T00:59:11.500Z,98842.23
2019-05-20T01:01:40.032Z,98842.98
2019-05-20T01:04:08.641Z,98848.41
2019-05-20T01:06:37.240Z,98841.61
2019-05-20T01:09:07.289Z,98839.17
2019-05-20T01:11:35.841Z,98847.00
2019-05-20T01:14:04.723Z,98840.80
2019-05-20T01:16:33.310Z,98837.25
2019-05-20T01:19:01.831Z,98839.17
2019-05-20T01:21:30.425Z,98833.39
2019-05-20T01:23:58.832Z,98839.62
2019-05-20T01:26:27.415Z,98845.88
2019-05-20T01:28:56.199Z,98852.12
2019-05-20T01:31:24.951Z,98845.95
2019-05-20T01:33:53.426Z,98842.87
2019-05-20T01:36:21.920Z,98844.47
2019-05-20T01:38:50.510Z,98849.94
2019-05-20T01:41:19.121Z,98846.07
2019-05-20T01:43:47.798Z,98849.22
2019-05-20T01:46:16.407Z,98850.42
2019-05-20T01:48:44.878Z,98846.73
2019-05-20T01:51:13.389Z,98843.44
2019-05-20T01:53:41.852Z,98841.45
2019-05-20T01:56:10.513Z,98838.23
2019-05-20T01:58:39.797Z,98844.03
2019-05-20T02:01:08.447Z,98836.22
2019-05-20T02:03:36.804Z,98833.06
2019-05-20T02:06:05.391Z,98828.89
2019-05-20T02:08:33.869Z,98824.38
2019-05-20T02:11:02.403Z,98818.13
2019-05-20T02:13:51.753Z,98818.83
2019-05-20T02:16:20.422Z,98813.54
2019-05-20T02:18:48.939Z,98812.52
2019-05-20T02:21:17.554Z,98816.69
2019-05-20T02:23:46.064Z,98811.26
2019-05-20T02:26:14.559Z,98807.14
2019-05-20T02:28:43.288Z,98814.63
2019-05-20T02:31:11.806Z,98820.58
2019-05-20T02:33:51.723Z,98818.47
2019-05-20T02:36:10.728Z,98817.38
2019-05-20T02:38:39.276Z,98817.45
2019-05-20T02:41:07.855Z,98822.95
2019-05-20T02:43:36.381Z,98818.84
2019-05-20T02:46:05.463Z,98820.13
2019-05-20T02:48:33.948Z,98820.69
2019-05-20T02:51:02.512Z,98828.23
2019-05-20T02:53:31.269Z,98829.97
2019-05-20T02:55:59.761Z,98827.91
2019-05-20T02:58:28.246Z,98837.14
2019-05-20T03:00:56.739Z,98837.03
2019-05-20T03:03:25.395Z,98833.43
2019-05-20T03:05:53.888Z,98824.20
2019-05-20T03:08:22.524Z,98825.33
2019-05-20T03:10:51.115Z,98825.90
2019-05-20T03:13:19.600Z,98821.58
2019-05-20T03:15:48.089Z,98822.80
2019-05-20T03:18:16.686Z,98813.52
2019-05-20T03:20:45.195Z,98809.69
2019-05-20T03:23:13.813Z,98812.91
2019-05-20T03:25:44.920Z,98819.02
2019-05-20T03:28:13.395Z,98818.22
2019-05-20T03:30:42.925Z,98820.78
2019-05-20T03:33:11.488Z,98825.92
2019-05-20T03:35:40.001Z,98823.72
2019-05-20T03:38:08.706Z,98825.66
2019-05-20T03:40:37.235Z,98826.17
2019-05-20T03:43:05.842Z,98820.33
2019-05-20T03:45:34.423Z,98817.06
2019-05-20T03:48:03.009Z,98814.53
2019-05-20T03:50:31.554Z,98815.91
2019-05-20T03:53:00.351Z,98824.16
2019-05-20T03:55:28.826Z,98825.61
2019-05-20T03:57:57.453Z,98819.96
2019-05-20T04:00:44.104Z,98820.31
2019-05-20T04:03:13.517Z,98824.05
2019-05-20T04:05:42.399Z,98832.12
2019-05-20T04:08:11.053Z,98848.11
2019-05-20T04:10:39.775Z,98851.88
2019-05-20T04:13:08.466Z,98863.45
2019-05-20T04:15:37.067Z,98865.31
2019-05-20T04:18:05.688Z,98862.33
2019-05-20T04:20:34.319Z,98863.56
2019-05-20T04:23:02.851Z,98865.39
2019-05-20T04:25:31.580Z,98864.48
2019-05-20T04:28:00.099Z,98866.71
2019-05-20T04:30:28.725Z,98872.87
2019-05-20T04:32:57.429Z,98873.34
2019-05-20T04:35:25.900Z,98878.95
2019-05-20T04:37:54.488Z,98880.94
2019-05-20T04:40:22.992Z,98881.94
2019-05-20T04:42:51.584Z,98874.70
2019-05-20T04:45:20.196Z,98869.38
2019-05-20T04:47:48.810Z,98861.73
2019-05-20T04:50:17.507Z,98855.45
2019-05-20T04:52:46.025Z,98851.07
2019-05-20T04:55:14.544Z,98853.54
2019-05-20T04:57:43.048Z,98855.72
2019-05-20T05:00:12.501Z,98858.35
2019-05-20T05:02:43.572Z,98867.97
2019-05-20T05:05:11.720Z,98874.56
2019-05-20T05:07:40.357Z,98876.34
2019-05-20T05:10:10.012Z,98880.79
2019-05-20T05:12:38.672Z,98887.81
2019-05-20T05:15:08.329Z,98881.86
2019-05-20T05:17:37.143Z,98878.13
2019-05-20T05:20:06.700Z,98881.18
2019-05-20T05:22:35.299Z,98875.51
2019-05-20T05:25:04.625Z,98877.59
2019-05-20T05:27:33.243Z,98867.25
2019-05-20T05:30:01.923Z,98859.00
2019-05-20T05:32:42.733Z,98860.13
2019-05-20T05:35:13.794Z,98863.63
2019-05-20T05:37:49.198Z,98859.44
2019-05-20T05:40:17.915Z,98865.16
2019-05-20T05:42:46.419Z,98857.64
2019-05-20T05:45:14.960Z,98848.52
2019-05-20T05:47:43.584Z,98846.58
2019-05-20T05:50:12.936Z,98853.88
2019-05-20T05:52:41.583Z,98859.56
2019-05-20T05:55:10.663Z,98854.36
2019-05-20T05:57:39.317Z,98854.52
2019-05-20T06:00:09.336Z,98855.97
2019-05-20T06:02:37.947Z,98851.38
2019-05-20T06:05:06.814Z,98855.76
2019-05-20T06:07:35.453Z,98858.02
2019-05-20T06:10:04.611Z,98858.09
2019-05-20T06:12:33.305Z,98863.31
2019-05-20T06:15:01.941Z,98866.42
2019-05-20T06:17:30.627Z,98864.47
2019-05-20T06:19:59.210Z,98866.47
2019-05-20T06:22:27.811Z,98863.45
2019-05-20T06:24:56.346Z,98862.91
2019-05-20T06:27:24.859Z,98867.41
2019-05-20T06:29:53.493Z,98877.78
2019-05-20T06:32:22.009Z,98880.28
2019-05-20T06:34:50.648Z,98888.34
2019-05-20T06:37:21.354Z,98888.59
2019-05-20T06:39:51.317Z,98887.95
2019-05-20T06:42:19.911Z,98890.11
2019-05-20T06:44:53.088Z,98886.78
2019-05-20T06:47:19.105Z,98882.51
2019-05-20T06:49:47.591Z,98882.38
2019-05-20T06:52:16.183Z,98877.20
2019-05-20T06:54:44.886Z,98868.02
2019-05-20T06:57:13.628Z,98865.21
2019-05-20T06:59:42.133Z,98856.20
2019-05-20T07:02:10.785Z,98858.58
2019-05-20T07:04:39.263Z,98865.47
2019-05-20T07:07:20.519Z,98866.66
2019-05-20T07:09:38.325Z,98862.98
2019-05-20T07:12:06.939Z,98861.31
2019-05-20T07:14:35.492Z,98857.27
2019-05-20T07:17:04.023Z,98857.78
2019-05-20T07:19:32.894Z,98861.46
2019-05-20T07:22:01.427Z,98862.12
2019-05-20T07:24:30.070Z,98861.65
2019-05-20T07:26:58.592Z,98852.25
2019-05-20T07:29:27.319Z,98851.41
2019-05-20T07:31:56.032Z,98856.41
2019-05-20T07:34:24.978Z,98848.88
2019-05-20T07:37:03.148Z,98853.56
2019-05-20T07:39:23.991Z,98855.41
2019-05-20T07:41:52.617Z,98858.77
2019-05-20T07:44:21.130Z,98864.59
2019-05-20T07:46:50.140Z,98860.39
2019-05-20T07:49:19.388Z,98863.56
2019-05-20T07:51:48.515Z,98862.26
2019-05-20T07:54:18.359Z,98873.80
2019-05-20T07:56:49.630Z,98872.61
2019-05-20T07:59:21.992Z,98864.70
2019-05-20T08:01:50.975Z,98871.67
2019-05-20T08:04:19.666Z,98880.56
2019-05-20T08:06:48.370Z,98864.45
2019-05-20T08:09:17.000Z,98869.08
2019-05-20T08:11:48.347Z,98870.77
2019-05-20T08:14:17.146Z,98862.99
2019-05-20T08:16:45.563Z,98860.69
2019-05-20T08:19:14.083Z,98861.65
2019-05-20T08:21:42.797Z,98864.11
2019-05-20T08:24:11.300Z,98862.72
2019-05-20T08:26:39.804Z,98868.63
2019-05-20T08:29:08.332Z,98868.33
2019-05-20T08:31:36.895Z,98868.79
2019-05-20T08:34:05.809Z,98863.06
2019-05-20T08:36:34.526Z,98858.79
2019-05-20T08:39:04.540Z,98865.15
2019-05-20T08:41:33.055Z,98863.27
2019-05-20T08:44:01.641Z,98872.02
2019-05-20T08:46:30.300Z,98862.67
2019-05-20T08:48:58.852Z,98853.66
2019-05-20T08:51:27.521Z,98852.36
2019-05-20T08:53:56.147Z,98861.06
2019-05-20T08:56:24.675Z,98857.61
2019-05-20T08:58:53.279Z,98853.58
2019-05-20T09:01:21.784Z,98851.13
2019-05-20T09:03:50.303Z,98853.07
2019-05-20T09:06:20.818Z,98860.99
2019-05-20T09:08:49.409Z,98862.85
2019-05-20T09:11:18.055Z,98854.48
2019-05-20T09:13:46.706Z,98858.95
2019-05-20T09:16:15.303Z,98858.53
2019-05-20T09:18:44.031Z,98850.58
2019-05-20T09:21:12.786Z,98848.52
2019-05-20T09:23:41.430Z,98851.92
2019-05-20T09:26:10.041Z,98855.53
2019-05-20T09:28:38.782Z,98852.50
2019-05-20T09:31:07.617Z,98850.48
2019-05-20T09:33:36.874Z,98850.87
2019-05-20T09:36:05.491Z,98856.86
2019-05-20T09:38:36.886Z,98848.83
2019-05-20T09:41:04.602Z,98841.26
2019-05-20T09:43:33.207Z,98848.25
2019-05-20T09:46:07.734Z,98842.80
2019-05-20T09:48:32.108Z,98846.80
2019-05-20T09:51:00.616Z,98839.66
2019-05-20T09:53:29.126Z,98841.27
2019-05-20T09:55:57.770Z,98837.81
2019-05-20T09:58:26.346Z,98832.22
2019-05-20T10:00:54.756Z,98833.38
2019-05-20T10:03:23.240Z,98825.77
2019-05-20T10:05:51.942Z,98827.94
2019-05-20T10:08:36.377Z,98820.49
2019-05-20T10:10:50.782Z,98815.19
2019-05-20T10:13:19.480Z,98814.80
2019-05-20T10:15:47.982Z,98814.72
2019-05-20T10:18:16.549Z,98819.48
2019-05-20T10:21:18.548Z,98812.55
2019-05-20T10:23:47.412Z,98809.09
2019-05-20T10:26:16.107Z,98808.55
2019-05-20T10:28:46.964Z,98810.14
2019-05-20T10:31:15.393Z,98810.38
2019-05-20T10:33:43.968Z,98801.58
2019-05-20T10:36:12.520Z,98798.77
2019-05-20T10:38:56.736Z,98791.52
2019-05-20T10:41:11.514Z,98805.63
2019-05-20T10:43:40.285Z,98811.01
2019-05-20T10:46:08.886Z,98801.24
2019-05-20T10:48:37.403Z,98774.34
2019-05-20T10:51:05.931Z,98768.90
2019-05-20T10:53:34.466Z,98765.91
2019-05-20T10:56:03.276Z,98760.57
2019-05-20T10:58:32.141Z,98767.02
2019-05-20T11:01:03.178Z,98780.54
2019-05-20T11:03:31.253Z,98775.32
2019-05-20T11:05:59.941Z,98768.80
2019-05-20T11:08:28.478Z,98772.32
2019-05-20T11:10:57.004Z,98781.45
2019-05-20T11:13:25.798Z,98786.16
2019-05-20T11:15:54.331Z,98784.02
2019-05-20T11:18:23.003Z,98793.69
2019-05-20T11:20:51.647Z,98793.56
2019-05-20T11:23:20.054Z,98792.39
2019-05-20T11:25:48.648Z,98800.55
2019-05-20T11:28:17.154Z,98787.63
2019-05-20T11:30:45.789Z,98789.87
2019-05-20T11:33:14.389Z,98778.20
2019-05-20T11:35:43.174Z,98781.95
2019-05-20T11:38:11.871Z,98773.11
2019-05-20T11:40:40.482Z,98763.31
2019-05-20T11:43:08.992Z,98771.98
2019-05-20T11:45:37.713Z,98776.33
2019-05-20T11:48:06.220Z,98768.83
2019-05-20T11:50:34.858Z,98762.34
2019-05-20T11:53:03.648Z,98758.27
2019-05-20T11:55:32.168Z,98774.59
2019-05-20T11:58:14.681Z,98751.64
2019-05-20T12:00:31.258Z,98754.01
2019-05-20T12:02:59.983Z,98739.72
2019-05-20T12:05:28.556Z,98742.73
2019-05-20T12:07:57.393Z,98741.60
2019-05-20T12:10:26.107Z,98742.83
2019-05-20T12:12:54.604Z,98761.08
2019-05-20T12:15:23.201Z,98749.37
2019-05-20T12:17:52.101Z,98746.19
2019-05-20T12:20:20.816Z,98737.48
2019-05-20T12:22:49.731Z,98721.00
2019-05-20T12:25:18.718Z,98736.64
2019-05-20T12:27:47.469Z,98730.66
2019-05-20T12:30:16.979Z,98727.14
2019-05-20T12:32:45.684Z,98728.91
2019-05-20T12:35:14.350Z,98723.05
2019-05-20T12:37:45.638Z,98722.69
2019-05-20T12:40:14.027Z,98726.84
2019-05-20T12:42:42.638Z,98727.14
2019-05-20T12:45:11.493Z,98722.45
2019-05-20T12:47:40.161Z,98720.11
2019-05-20T12:50:09.490Z,98716.66
2019-05-20T12:52:38.246Z,98721.18
2019-05-20T12:55:09.491Z,98726.78
2019-05-20T12:57:38.452Z,98732.55
2019-05-20T13:00:08.660Z,98728.06
2019-05-20T13:02:37.245Z,98731.03
2019-05-20T13:05:06.086Z,98732.23
2019-05-20T13:07:34.768Z,98729.45
2019-05-20T13:10:04.566Z,98734.19
2019-05-20T13:12:33.464Z,98729.42
2019-05-20T13:15:02.096Z,98723.94
2019-05-20T13:17:30.731Z,98732.33
2019-05-20T13:20:00.628Z,98737.51
2019-05-20T13:22:29.420Z,98734.55
2019-05-20T13:24:58.430Z,98734.72
2019-05-20T13:27:27.058Z,98735.38
2019-05-20T13:29:55.770Z,98723.73
2019-05-20T13:32:24.395Z,98721.37
2019-05-20T13:34:53.197Z,98720.23
2019-05-20T13:37:21.808Z,98728.46
2019-05-20T13:39:50.511Z,98728.55
2019-05-20T13:42:19.215Z,98732.44
2019-05-20T13:44:47.786Z,98733.27
2019-05-20T13:47:16.445Z,98724.39
2019-05-20T13:49:45.072Z,98731.33
2019-05-20T13:52:13.649Z,98723.64
2019-05-20T13:54:42.291Z,98718.73
2019-05-20T13:57:13.230Z,98718.37
2019-05-20T13:59:41.661Z,98722.05
2019-05-20T14:02:10.521Z,98722.18
2019-05-20T14:04:39.137Z,98727.31
2019-05-20T14:07:07.708Z,98732.17
2019-05-20T14:09:37.581Z,98739.57
2019-05-20T14:12:07.916Z,98747.50
2019-05-20T14:14:37.484Z,98740.66
2019-05-20T14:17:07.020Z,98734.00
2019-05-20T14:19:37.555Z,98739.70
2019-05-20T14:22:06.547Z,98729.97
2019-05-20T14:24:36.511Z,98742.51
2019-05-20T14:27:05.845Z,98734.83
2019-05-20T14:29:35.072Z,98733.77
2019-05-20T14:32:04.751Z,98733.69
2019-05-20T14:34:33.881Z,98720.68
2019-05-20T14:37:03.196Z,98711.27
2019-05-20T14:39:32.396Z,98713.98
2019-05-20T14:42:02.247Z,98716.81
2019-05-20T14:44:31.706Z,98708.36
2019-05-20T14:47:01.524Z,98713.02
2019-05-20T14:49:30.521Z,98719.80
2019-05-20T14:51:59.642Z,98725.44
2019-05-20T14:54:29.998Z,98723.03
2019-05-20T14:56:59.489Z,98730.19
2019-05-20T14:59:29.151Z,98726.59
2019-05-20T15:01:58.543Z,98733.07
2019-05-20T15:04:27.718Z,98732.36
2019-05-20T15:06:57.120Z,98741.91
2019-05-20T15:09:26.301Z,98737.69
2019-05-20T15:11:55.105Z,98749.48
2019-05-20T15:14:24.258Z,98747.19
2019-05-20T15:16:53.332Z,98747.48
2019-05-20T15:19:22.791Z,98750.77
2019-05-20T15:21:52.065Z,98762.06
2019-05-20T15:24:21.160Z,98751.16
2019-05-20T15:26:50.828Z,98751.52
2019-05-20T15:29:28.199Z,98757.05
2019-05-20T15:31:50.307Z,98750.94
2019-05-20T15:34:19.020Z,98749.02
2019-05-20T15:36:47.968Z,98763.28
2019-05-20T15:39:17.275Z,98766.34
2019-05-20T15:41:46.677Z,98766.33
2019-05-20T15:44:16.068Z,98757.59
2019-05-20T15:46:44.953Z,98750.67
2019-05-20T15:49:13.988Z,98747.41
2019-05-20T15:51:43.124Z,98740.25
2019-05-20T15:54:12.114Z,98750.97
2019-05-20T15:56:41.135Z,98743.41
2019-05-20T15:59:10.045Z,98743.30
2019-05-20T16:01:39.073Z,98753.23
2019-05-20T16:04:08.281Z,98753.45
2019-05-20T16:06:37.327Z,98756.44
2019-05-20T16:09:07.790Z,98746.86
2019-05-20T16:11:36.495Z,98744.17
2019-05-20T16:14:05.633Z,98747.16
2019-05-20T16:16:34.183Z,98758.82
2019-05-20T16:19:03.181Z,98759.63
2019-05-20T16:21:32.147Z,98775.98
2019-05-20T16:24:00.626Z,98770.91
2019-05-20T16:26:30.068Z,98789.97
2019-05-20T16:28:58.736Z,98786.02
2019-05-20T16:31:28.067Z,98792.42
2019-05-20T16:33:59.477Z,98802.75
2019-05-20T16:36:27.572Z,98815.34
2019-05-20T16:38:56.301Z,98824.27
2019-05-20T16:41:25.613Z,98829.38
2019-05-20T16:43:54.130Z,98849.10
2019-05-20T16:46:22.917Z,98872.85
2019-05-20T16:48:51.541Z,98873.11
2019-05-20T16:51:22.195Z,98877.03
2019-05-20T16:53:50.510Z,98888.45
2019-05-20T16:56:19.408Z,98894.21
2019-05-20T16:58:47.939Z,98911.11
2019-05-20T17:01:16.435Z,98919.72
2019-05-20T17:03:45.024Z,98911.89
2019-05-20T17:06:14.030Z,98933.17
2019-05-20T17:08:42.424Z,98939.73
2019-05-20T17:11:11.262Z,98934.00
2019-05-20T17:13:40.090Z,98933.25
2019-05-20T17:16:08.887Z,98948.36
2019-05-20T17:18:37.493Z,98952.73
2019-05-20T17:21:06.382Z,98952.84
2019-05-20T17:23:35.096Z,98957.05
2019-05-20T17:26:03.742Z,98962.62
2019-05-20T17:28:32.317Z,98967.34
2019-05-20T17:31:01.031Z,98973.03
2019-05-20T17:33:55.822Z,98968.39
2019-05-20T17:36:38.845Z,98982.79
2019-05-20T17:39:34.758Z,98983.80
2019-05-20T17:42:17.631Z,98989.41
2019-05-20T17:47:58.205Z,99005.58
2019-05-20T17:50:30.613Z,99013.97
2019-05-20T17:52:59.615Z,99021.64
2019-05-20T17:55:29.608Z,99013.30
2019-05-20T17:57:58.845Z,99019.69
2019-05-20T18:00:27.711Z,99017.97
2019-05-20T18:02:57.065Z,99020.00
2019-05-20T18:05:25.564Z,99018.67
2019-05-20T18:07:54.286Z,99027.56
2019-05-20T18:10:24.800Z,99030.41
2019-05-20T18:12:53.398Z,99043.16
2019-05-20T18:15:22.110Z,99042.64
2019-05-20T18:17:51.582Z,99043.14
2019-05-20T18:20:20.718Z,99038.30
2019-05-20T18:22:49.664Z,99034.69
2019-05-20T18:25:18.495Z,99041.63
2019-05-20T18:27:47.238Z,99031.55
2019-05-20T18:30:16.214Z,99035.78
2019-05-20T18:32:44.929Z,99040.59
2019-05-20T18:35:13.890Z,99041.13
2019-05-20T18:37:43.224Z,99045.09
2019-05-20T18:40:14.853Z,99051.67
2019-05-20T18:42:43.504Z,99050.11
2019-05-20T18:45:12.544Z,99048.95
2019-05-20T18:47:41.876Z,99055.03
2019-05-20T18:50:10.790Z,99058.23
2019-05-20T18:52:39.761Z,99058.16
2019-05-20T18:55:08.461Z,99063.70
2019-05-20T18:57:37.209Z,99067.92
2019-05-20T19:00:23.411Z,99064.43
2019-05-20T19:02:52.044Z,99069.25
2019-05-20T19:05:20.918Z,99071.82
2019-05-20T19:07:50.365Z,99070.34
2019-05-20T19:10:19.238Z,99072.23
2019-05-20T19:12:47.961Z,99082.81
2019-05-20T19:15:16.712Z,99087.70
2019-05-20T19:17:45.491Z,99086.91
2019-05-20T19:20:16.009Z,99093.69
2019-05-20T19:22:44.979Z,99097.22
2019-05-20T19:25:14.144Z,99101.63
2019-05-20T19:27:42.777Z,99097.78
2019-05-20T19:30:12.009Z,99097.17
2019-05-20T19:32:40.479Z,99105.95
2019-05-20T19:35:09.488Z,99113.68
2019-05-20T19:37:38.194Z,99110.78
2019-05-20T19:40:08.481Z,99113.70
2019-05-20T19:42:37.373Z,99110.80
2019-05-20T19:45:06.195Z,99115.72
2019-05-20T19:47:34.900Z,99115.85
2019-05-20T19:50:04.006Z,99112.48
2019-05-20T19:52:32.607Z,99116.69
2019-05-20T19:55:01.454Z,99118.48
2019-05-20T19:57:30.210Z,99109.75
2019-05-20T19:59:58.804Z,99113.23
2019-05-20T20:02:27.447Z,99118.67
2019-05-20T20:04:56.049Z,99117.11
2019-05-20T20:07:24.772Z,99115.48
2019-05-20T20:09:53.270Z,99120.16
2019-05-20T20:12:21.968Z,99119.20
2019-05-20T20:14:50.560Z,99115.30
2019-05-20T20:17:19.318Z,99121.88
2019-05-20T20:19:48.145Z,99123.20
2019-05-20T20:22:16.653Z,99129.25
2019-05-20T20:24:45.135Z,99130.79
2019-05-20T20:27:13.871Z,99137.77
2019-05-20T20:29:43.174Z,99145.19
2019-05-20T20:32:11.773Z,99130.89
2019-05-20T20:34:40.388Z,99139.44
2019-05-20T20:37:09.003Z,99135.06
2019-05-20T20:39:37.687Z,99136.92
2019-05-20T20:42:06.155Z,99135.18
2019-05-20T20:44:34.554Z,99141.74
2019-05-20T20:47:03.146Z,99148.30
2019-05-20T20:49:32.153Z,99154.20
2019-05-20T20:52:00.759Z,99163.02
2019-05-20T20:54:29.388Z,99162.68
2019-05-20T20:56:57.880Z,99161.70
2019-05-20T20:59:26.389Z,99165.35
2019-05-20T21:01:58.990Z,99159.57
2019-05-20T21:04:25.580Z,99151.73
2019-05-20T21:06:54.090Z,99149.33
2019-05-20T21:09:22.826Z,99144.36
2019-05-20T21:11:51.393Z,99159.59
2019-05-20T21:14:19.978Z,99164.59
2019-05-20T21:16:48.461Z,99164.17
2019-05-20T21:19:16.941Z,99166.56
2019-05-20T21:21:45.428Z,99165.34
2019-05-20T21:24:14.821Z,99158.11
2019-05-20T21:26:43.397Z,99156.00
2019-05-20T21:29:11.889Z,99159.69
2019-05-20T21:31:40.532Z,99159.23
2019-05-20T21:34:09.073Z,99172.61
2019-05-20T21:36:46.996Z,99171.98
2019-05-20T21:39:08.246Z,99166.27
2019-05-20T21:41:36.743Z,99173.00
2019-05-20T21:44:05.919Z,99167.94
2019-05-20T21:46:34.513Z,99173.09
2019-05-20T21:49:03.016Z,99180.03
2019-05-20T21:51:31.596Z,99178.27
2019-05-20T21:54:00.199Z,99176.22
2019-05-20T21:56:28.780Z,99181.00
2019-05-20T21:58:57.415Z,99176.83
2019-05-20T22:01:26.122Z,99173.34
2019-05-20T22:03:54.606Z,99178.97
2019-05-20T22:06:23.006Z,99176.41
2019-05-20T22:08:51.587Z,99173.73
2019-05-20T22:11:19.980Z,99172.95
2019-05-20T22:13:48.472Z,99171.41
2019-05-20T22:16:17.072Z,99179.27
2019-05-20T22:18:45.570Z,99176.03
2019-05-20T22:21:16.049Z,99177.83
2019-05-20T22:23:52.912Z,99184.28
2019-05-20T22:26:21.494Z,99177.50
2019-05-20T22:28:50.191Z,99174.28
2019-05-20T22:31:18.678Z,99176.09
2019-05-20T22:33:47.274Z,99175.40
2019-05-20T22:36:15.855Z,99174.48
2019-05-20T22:38:44.336Z,99173.72
2019-05-20T22:41:12.940Z,99181.98
2019-05-20T22:43:41.560Z,99165.66
2019-05-20T22:46:10.279Z,99169.89
2019-05-20T22:48:39.004Z,99164.45
2019-05-20T22:51:08.069Z,99162.66
2019-05-20T22:53:36.570Z,99165.42
2019-05-20T22:56:05.061Z,99160.41
2019-05-20T22:58:33.746Z,99166.97
2019-05-20T23:01:02.338Z,99166.19
2019-05-20T23:03:31.035Z,99161.34
2019-05-20T23:05:59.624Z,99165.25
2019-05-20T23:08:28.212Z,99164.96
2019-05-20T23:10:56.832Z,99166.70
2019-05-20T23:13:25.413Z,99175.83
2019-05-20T23:15:55.735Z,99171.06
2019-05-20T23:18:24.328Z,99161.04
2019-05-20T23:20:53.032Z,99165.63
2019-05-20T23:23:21.736Z,99158.77
2019-05-20T23:25:52.809Z,99159.20
2019-05-20T23:28:20.733Z,99161.39
2019-05-20T23:30:49.328Z,99159.38
2019-05-20T23:33:17.940Z,99153.46
2019-05-20T23:35:46.592Z,99162.67
2019-05-20T23:38:15.600Z,99156.25
2019-05-20T23:40:44.880Z,99149.95
2019-05-20T23:43:13.583Z,99157.06
2019-05-20T23:45:42.384Z,99142.43
2019-05-20T23:48:10.761Z,99147.92
2019-05-20T23:50:39.352Z,99154.73
2019-05-20T23:53:07.728Z,99154.37
2019-05-20T23:55:36.214Z,99158.88
2019-05-20T23:58:04.880Z,99155.73
